sensor_id;sensor_type;location;lat;lon;timestamp;P1;durP1;ratioP1;P2;durP2;ratioP2
7941;SDS011;4016;50.758;7.150;2022-09-13T00:03:21;3.80;;;3.47;;
7941;SDS011;4016;50.758;7.150;2022-09-13T00:08:22;4.63;;;3.87;;
7941;SDS011;4016;50.758;7.150;2022-09-13T00:13:23;5.53;;;3.43;;
7941;SDS011;4016;50.758;7.150;2022-09-13T00:18:23;3.70;;;3.10;;
7941;SDS011;4016;50.758;7.150;2022-09-13T00:23:24;4.07;;;3.00;;
7941;SDS011;4016;50.758;7.150;2022-09-13T00:28:24;3.40;;;3.10;;
7941;SDS011;4016;50.758;7.150;2022-09-13T00:33:24;3.83;;;3.23;;
7941;SDS011;4016;50.758;7.150;2022-09-13T00:38:25;3.63;;;3.33;;
7941;SDS011;4016;50.758;7.150;2022-09-13T00:48:44;3.43;;;3.13;;
7941;SDS011;4016;50.758;7.150;2022-09-13T00:53:47;3.40;;;3.10;;
7941;SDS011;4016;50.758;7.150;2022-09-13T00:58:58;3.80;;;3.50;;
7941;SDS011;4016;50.758;7.150;2022-09-13T01:04:01;3.67;;;3.37;;
7941;SDS011;4016;50.758;7.150;2022-09-13T01:09:02;3.97;;;3.50;;
7941;SDS011;4016;50.758;7.150;2022-09-13T01:14:04;4.37;;;3.97;;
7941;SDS011;4016;50.758;7.150;2022-09-13T01:19:06;4.30;;;3.90;;
7941;SDS011;4016;50.758;7.150;2022-09-13T01:24:12;3.80;;;3.37;;
7941;SDS011;4016;50.758;7.150;2022-09-13T01:29:43;4.00;;;3.60;;
7941;SDS011;4016;50.758;7.150;2022-09-13T01:40:23;4.10;;;3.70;;
7941;SDS011;4016;50.758;7.150;2022-09-13T01:50:46;5.50;;;3.60;;
7941;SDS011;4016;50.758;7.150;2022-09-13T01:56:04;4.10;;;3.70;;
7941;SDS011;4016;50.758;7.150;2022-09-13T02:01:18;3.53;;;3.23;;
7941;SDS011;4016;50.758;7.150;2022-09-13T02:06:38;3.60;;;3.30;;
7941;SDS011;4016;50.758;7.150;2022-09-13T02:11:45;3.73;;;3.43;;
7941;SDS011;4016;50.758;7.150;2022-09-13T02:22:26;4.27;;;3.80;;
7941;SDS011;4016;50.758;7.150;2022-09-13T02:27:32;4.00;;;3.63;;
7941;SDS011;4016;50.758;7.150;2022-09-13T02:32:39;3.90;;;3.50;;
7941;SDS011;4016;50.758;7.150;2022-09-13T02:37:39;3.67;;;3.33;;
7941;SDS011;4016;50.758;7.150;2022-09-13T02:42:46;4.10;;;3.63;;
7941;SDS011;4016;50.758;7.150;2022-09-13T02:47:55;4.57;;;3.73;;
7941;SDS011;4016;50.758;7.150;2022-09-13T02:58:02;4.17;;;3.83;;
7941;SDS011;4016;50.758;7.150;2022-09-13T03:03:10;4.17;;;3.70;;
7941;SDS011;4016;50.758;7.150;2022-09-13T03:08:13;3.40;;;3.10;;
7941;SDS011;4016;50.758;7.150;2022-09-13T03:18:47;3.60;;;3.30;;
7941;SDS011;4016;50.758;7.150;2022-09-13T03:23:58;3.83;;;3.37;;
7941;SDS011;4016;50.758;7.150;2022-09-13T03:39:36;4.50;;;3.70;;
7941;SDS011;4016;50.758;7.150;2022-09-13T03:44:54;3.73;;;3.37;;
7941;SDS011;4016;50.758;7.150;2022-09-13T03:49:55;3.57;;;3.17;;
7941;SDS011;4016;50.758;7.150;2022-09-13T03:54:56;3.37;;;3.10;;
7941;SDS011;4016;50.758;7.150;2022-09-13T03:59:57;3.60;;;3.30;;
7941;SDS011;4016;50.758;7.150;2022-09-13T04:04:57;3.47;;;3.17;;
7941;SDS011;4016;50.758;7.150;2022-09-13T04:09:58;3.77;;;3.47;;
7941;SDS011;4016;50.758;7.150;2022-09-13T04:14:58;4.03;;;3.70;;
7941;SDS011;4016;50.758;7.150;2022-09-13T04:19:59;4.63;;;3.30;;
7941;SDS011;4016;50.758;7.150;2022-09-13T04:24:59;4.13;;;3.73;;
7941;SDS011;4016;50.758;7.150;2022-09-13T04:30:00;4.27;;;3.87;;
7941;SDS011;4016;50.758;7.150;2022-09-13T04:35:01;3.87;;;3.57;;
7941;SDS011;4016;50.758;7.150;2022-09-13T04:40:01;4.37;;;3.70;;
7941;SDS011;4016;50.758;7.150;2022-09-13T04:45:02;5.87;;;3.37;;
7941;SDS011;4016;50.758;7.150;2022-09-13T04:50:03;3.90;;;3.53;;
7941;SDS011;4016;50.758;7.150;2022-09-13T04:55:04;4.23;;;3.83;;
7941;SDS011;4016;50.758;7.150;2022-09-13T05:00:06;3.60;;;3.30;;
7941;SDS011;4016;50.758;7.150;2022-09-13T05:05:07;4.03;;;3.63;;
7941;SDS011;4016;50.758;7.150;2022-09-13T05:10:08;3.60;;;3.30;;
7941;SDS011;4016;50.758;7.150;2022-09-13T05:15:09;4.37;;;3.77;;
7941;SDS011;4016;50.758;7.150;2022-09-13T05:20:11;3.73;;;3.43;;
7941;SDS011;4016;50.758;7.150;2022-09-13T05:25:11;3.73;;;3.30;;
7941;SDS011;4016;50.758;7.150;2022-09-13T05:30:12;4.03;;;3.30;;
7941;SDS011;4016;50.758;7.150;2022-09-13T05:35:13;4.20;;;3.80;;
7941;SDS011;4016;50.758;7.150;2022-09-13T05:40:14;4.10;;;3.57;;
7941;SDS011;4016;50.758;7.150;2022-09-13T05:45:14;4.37;;;3.40;;
7941;SDS011;4016;50.758;7.150;2022-09-13T05:50:15;3.90;;;3.60;;
7941;SDS011;4016;50.758;7.150;2022-09-13T05:55:16;4.20;;;3.80;;
7941;SDS011;4016;50.758;7.150;2022-09-13T06:00:16;3.77;;;3.47;;
7941;SDS011;4016;50.758;7.150;2022-09-13T06:05:17;4.03;;;3.63;;
7941;SDS011;4016;50.758;7.150;2022-09-13T06:10:17;3.90;;;3.50;;
7941;SDS011;4016;50.758;7.150;2022-09-13T06:15:19;4.40;;;3.63;;
7941;SDS011;4016;50.758;7.150;2022-09-13T06:20:19;4.07;;;3.67;;
7941;SDS011;4016;50.758;7.150;2022-09-13T06:25:20;4.23;;;3.60;;
7941;SDS011;4016;50.758;7.150;2022-09-13T06:30:20;3.93;;;3.53;;
7941;SDS011;4016;50.758;7.150;2022-09-13T06:35:20;3.33;;;3.03;;
7941;SDS011;4016;50.758;7.150;2022-09-13T06:40:21;3.70;;;3.40;;
7941;SDS011;4016;50.758;7.150;2022-09-13T06:45:21;5.20;;;3.73;;
7941;SDS011;4016;50.758;7.150;2022-09-13T06:50:22;3.67;;;3.37;;
7941;SDS011;4016;50.758;7.150;2022-09-13T06:55:23;4.17;;;3.57;;
7941;SDS011;4016;50.758;7.150;2022-09-13T07:00:23;3.63;;;3.33;;
7941;SDS011;4016;50.758;7.150;2022-09-13T07:05:24;3.53;;;3.23;;
7941;SDS011;4016;50.758;7.150;2022-09-13T07:10:24;3.53;;;3.23;;
7941;SDS011;4016;50.758;7.150;2022-09-13T07:15:25;4.95;;;3.35;;
7941;SDS011;4016;50.758;7.150;2022-09-13T07:20:25;5.05;;;3.30;;
7941;SDS011;4016;50.758;7.150;2022-09-13T07:25:26;3.38;;;3.08;;
7941;SDS011;4016;50.758;7.150;2022-09-13T07:30:26;4.40;;;3.70;;
7941;SDS011;4016;50.758;7.150;2022-09-13T07:35:26;3.63;;;3.33;;
7941;SDS011;4016;50.758;7.150;2022-09-13T07:40:27;4.45;;;3.97;;
7941;SDS011;4016;50.758;7.150;2022-09-13T07:45:27;3.50;;;3.20;;
7941;SDS011;4016;50.758;7.150;2022-09-13T07:50:28;3.85;;;3.47;;
7941;SDS011;4016;50.758;7.150;2022-09-13T07:55:28;6.15;;;3.40;;
7941;SDS011;4016;50.758;7.150;2022-09-13T08:00:30;4.32;;;3.50;;
7941;SDS011;4016;50.758;7.150;2022-09-13T08:05:30;4.72;;;3.05;;
7941;SDS011;4016;50.758;7.150;2022-09-13T08:10:32;3.33;;;3.03;;
7941;SDS011;4016;50.758;7.150;2022-09-13T08:15:33;3.75;;;3.38;;
7941;SDS011;4016;50.758;7.150;2022-09-13T08:20:37;2.85;;;2.65;;
7941;SDS011;4016;50.758;7.150;2022-09-13T08:25:38;3.17;;;2.88;;
7941;SDS011;4016;50.758;7.150;2022-09-13T08:30:39;3.13;;;2.83;;
7941;SDS011;4016;50.758;7.150;2022-09-13T08:35:48;3.08;;;2.78;;
7941;SDS011;4016;50.758;7.150;2022-09-13T08:40:53;3.40;;;3.10;;
7941;SDS011;4016;50.758;7.150;2022-09-13T08:45:59;4.70;;;3.22;;
7941;SDS011;4016;50.758;7.150;2022-09-13T08:51:04;3.53;;;2.78;;
7941;SDS011;4016;50.758;7.150;2022-09-13T08:56:10;3.38;;;2.88;;
7941;SDS011;4016;50.758;7.150;2022-09-13T09:01:25;3.03;;;2.83;;
7941;SDS011;4016;50.758;7.150;2022-09-13T09:06:35;2.90;;;2.70;;
7941;SDS011;4016;50.758;7.150;2022-09-13T09:16:59;3.05;;;2.85;;
7941;SDS011;4016;50.758;7.150;2022-09-13T09:22:04;3.70;;;2.92;;
7941;SDS011;4016;50.758;7.150;2022-09-13T09:27:13;2.92;;;2.58;;
7941;SDS011;4016;50.758;7.150;2022-09-13T09:37:40;3.50;;;2.67;;
7941;SDS011;4016;50.758;7.150;2022-09-13T09:42:46;3.08;;;2.78;;
7941;SDS011;4016;50.758;7.150;2022-09-13T09:47:49;2.50;;;2.40;;
7941;SDS011;4016;50.758;7.150;2022-09-13T09:52:52;2.60;;;2.40;;
7941;SDS011;4016;50.758;7.150;2022-09-13T09:57:59;3.92;;;2.78;;
7941;SDS011;4016;50.758;7.150;2022-09-13T10:03:02;3.20;;;2.60;;
7941;SDS011;4016;50.758;7.150;2022-09-13T10:08:06;2.70;;;2.50;;
7941;SDS011;4016;50.758;7.150;2022-09-13T10:13:18;3.95;;;2.38;;
7941;SDS011;4016;50.758;7.150;2022-09-13T10:18:21;4.30;;;2.42;;
7941;SDS011;4016;50.758;7.150;2022-09-13T10:23:21;2.33;;;2.13;;
7941;SDS011;4016;50.758;7.150;2022-09-13T10:28:22;3.00;;;2.20;;
7941;SDS011;4016;50.758;7.150;2022-09-13T10:38:37;2.80;;;2.40;;
7941;SDS011;4016;50.758;7.150;2022-09-13T10:43:39;2.83;;;2.20;;
7941;SDS011;4016;50.758;7.150;2022-09-13T10:48:46;2.60;;;2.45;;
7941;SDS011;4016;50.758;7.150;2022-09-13T10:54:39;2.80;;;2.60;;
7941;SDS011;4016;50.758;7.150;2022-09-13T10:59:25;3.80;;;2.70;;
7941;SDS011;4016;50.758;7.150;2022-09-13T11:10:07;2.80;;;2.60;;
7941;SDS011;4016;50.758;7.150;2022-09-13T11:20:50;2.90;;;2.70;;
7941;SDS011;4016;50.758;7.150;2022-09-13T11:36:59;2.55;;;2.35;;
7941;SDS011;4016;50.758;7.150;2022-09-13T11:42:13;3.75;;;2.83;;
7941;SDS011;4016;50.758;7.150;2022-09-13T11:58:04;2.80;;;2.60;;
7941;SDS011;4016;50.758;7.150;2022-09-13T12:13:23;2.75;;;2.55;;
7941;SDS011;4016;50.758;7.150;2022-09-13T12:18:35;2.83;;;2.60;;
7941;SDS011;4016;50.758;7.150;2022-09-13T12:23:50;2.60;;;2.50;;
7941;SDS011;4016;50.758;7.150;2022-09-13T12:29:12;3.40;;;2.58;;
7941;SDS011;4016;50.758;7.150;2022-09-13T12:34:48;2.80;;;2.60;;
7941;SDS011;4016;50.758;7.150;2022-09-13T12:45:07;3.88;;;2.88;;
7941;SDS011;4016;50.758;7.150;2022-09-13T12:50:50;2.67;;;2.47;;
7941;SDS011;4016;50.758;7.150;2022-09-13T13:11:47;3.30;;;2.65;;
7941;SDS011;4016;50.758;7.150;2022-09-13T13:16:48;2.60;;;2.40;;
7941;SDS011;4016;50.758;7.150;2022-09-13T13:21:48;2.70;;;2.50;;
7941;SDS011;4016;50.758;7.150;2022-09-13T13:26:50;2.67;;;2.47;;
7941;SDS011;4016;50.758;7.150;2022-09-13T13:37:24;2.95;;;2.70;;
7941;SDS011;4016;50.758;7.150;2022-09-13T13:42:25;3.13;;;2.83;;
7941;SDS011;4016;50.758;7.150;2022-09-13T13:53:13;2.50;;;2.40;;
7941;SDS011;4016;50.758;7.150;2022-09-13T13:58:03;2.72;;;2.47;;
7941;SDS011;4016;50.758;7.150;2022-09-13T14:19:21;3.13;;;2.47;;
7941;SDS011;4016;50.758;7.150;2022-09-13T14:24:55;2.63;;;2.42;;
7941;SDS011;4016;50.758;7.150;2022-09-13T14:40:27;3.65;;;2.17;;
7941;SDS011;4016;50.758;7.150;2022-09-13T14:45:29;3.47;;;2.42;;
7941;SDS011;4016;50.758;7.150;2022-09-13T14:50:39;2.33;;;2.22;;
7941;SDS011;4016;50.758;7.150;2022-09-13T15:01:07;3.20;;;2.90;;
7941;SDS011;4016;50.758;7.150;2022-09-13T15:06:24;2.75;;;2.55;;
7941;SDS011;4016;50.758;7.150;2022-09-13T15:11:34;2.78;;;2.28;;
7941;SDS011;4016;50.758;7.150;2022-09-13T15:16:45;2.67;;;2.47;;
7941;SDS011;4016;50.758;7.150;2022-09-13T15:21:47;2.50;;;2.30;;
7941;SDS011;4016;50.758;7.150;2022-09-13T15:26:48;3.20;;;2.65;;
7941;SDS011;4016;50.758;7.150;2022-09-13T15:31:48;3.88;;;2.90;;
7941;SDS011;4016;50.758;7.150;2022-09-13T15:37:00;2.70;;;2.50;;
7941;SDS011;4016;50.758;7.150;2022-09-13T15:42:12;3.05;;;2.75;;
7941;SDS011;4016;50.758;7.150;2022-09-13T15:47:15;2.50;;;2.30;;
7941;SDS011;4016;50.758;7.150;2022-09-13T15:52:18;3.25;;;2.47;;
7941;SDS011;4016;50.758;7.150;2022-09-13T16:02:24;3.28;;;2.60;;
7941;SDS011;4016;50.758;7.150;2022-09-13T16:07:25;2.95;;;2.40;;
7941;SDS011;4016;50.758;7.150;2022-09-13T16:12:25;3.38;;;2.70;;
7941;SDS011;4016;50.758;7.150;2022-09-13T16:17:26;2.80;;;2.40;;
7941;SDS011;4016;50.758;7.150;2022-09-13T16:22:27;3.13;;;2.58;;
7941;SDS011;4016;50.758;7.150;2022-09-13T16:27:27;2.78;;;2.50;;
7941;SDS011;4016;50.758;7.150;2022-09-13T16:32:29;4.25;;;2.90;;
7941;SDS011;4016;50.758;7.150;2022-09-13T16:37:29;3.15;;;2.78;;
7941;SDS011;4016;50.758;7.150;2022-09-13T16:42:29;2.95;;;2.65;;
7941;SDS011;4016;50.758;7.150;2022-09-13T16:47:30;2.65;;;2.45;;
7941;SDS011;4016;50.758;7.150;2022-09-13T16:52:31;3.00;;;2.80;;
7941;SDS011;4016;50.758;7.150;2022-09-13T16:57:32;2.67;;;2.47;;
7941;SDS011;4016;50.758;7.150;2022-09-13T17:02:33;2.70;;;2.40;;
7941;SDS011;4016;50.758;7.150;2022-09-13T17:07:34;2.70;;;2.50;;
7941;SDS011;4016;50.758;7.150;2022-09-13T17:12:35;2.90;;;2.70;;
7941;SDS011;4016;50.758;7.150;2022-09-13T17:17:36;3.35;;;2.40;;
7941;SDS011;4016;50.758;7.150;2022-09-13T17:22:36;4.13;;;2.47;;
7941;SDS011;4016;50.758;7.150;2022-09-13T17:27:37;2.70;;;2.50;;
7941;SDS011;4016;50.758;7.150;2022-09-13T17:32:37;3.15;;;2.40;;
7941;SDS011;4016;50.758;7.150;2022-09-13T17:37:37;3.03;;;2.72;;
7941;SDS011;4016;50.758;7.150;2022-09-13T17:42:38;3.20;;;2.90;;
7941;SDS011;4016;50.758;7.150;2022-09-13T17:47:38;2.60;;;2.40;;
7941;SDS011;4016;50.758;7.150;2022-09-13T17:52:39;3.40;;;3.10;;
7941;SDS011;4016;50.758;7.150;2022-09-13T17:57:39;4.63;;;3.15;;
7941;SDS011;4016;50.758;7.150;2022-09-13T18:02:42;3.22;;;2.97;;
7941;SDS011;4016;50.758;7.150;2022-09-13T18:07:43;3.10;;;2.83;;
7941;SDS011;4016;50.758;7.150;2022-09-13T18:12:44;3.15;;;2.85;;
7941;SDS011;4016;50.758;7.150;2022-09-13T18:17:44;3.25;;;2.85;;
7941;SDS011;4016;50.758;7.150;2022-09-13T18:22:44;3.30;;;2.92;;
7941;SDS011;4016;50.758;7.150;2022-09-13T18:27:45;3.53;;;3.22;;
7941;SDS011;4016;50.758;7.150;2022-09-13T18:32:45;3.50;;;3.20;;
7941;SDS011;4016;50.758;7.150;2022-09-13T18:37:45;2.95;;;2.75;;
7941;SDS011;4016;50.758;7.150;2022-09-13T18:42:46;3.97;;;3.58;;
7941;SDS011;4016;50.758;7.150;2022-09-13T18:47:46;3.53;;;3.22;;
7941;SDS011;4016;50.758;7.150;2022-09-13T18:52:46;3.60;;;3.30;;
7941;SDS011;4016;50.758;7.150;2022-09-13T18:57:47;3.13;;;2.83;;
7941;SDS011;4016;50.758;7.150;2022-09-13T19:02:47;3.80;;;3.40;;
7941;SDS011;4016;50.758;7.150;2022-09-13T19:07:48;5.47;;;3.08;;
7941;SDS011;4016;50.758;7.150;2022-09-13T19:12:49;5.05;;;3.40;;
7941;SDS011;4016;50.758;7.150;2022-09-13T19:17:49;3.95;;;3.53;;
7941;SDS011;4016;50.758;7.150;2022-09-13T19:22:49;4.15;;;3.70;;
7941;SDS011;4016;50.758;7.150;2022-09-13T19:27:51;4.30;;;3.55;;
7941;SDS011;4016;50.758;7.150;2022-09-13T19:32:51;4.35;;;3.70;;
7941;SDS011;4016;50.758;7.150;2022-09-13T19:37:52;3.92;;;3.60;;
7941;SDS011;4016;50.758;7.150;2022-09-13T19:42:53;4.25;;;3.88;;
7941;SDS011;4016;50.758;7.150;2022-09-13T19:47:53;4.03;;;3.60;;
7941;SDS011;4016;50.758;7.150;2022-09-13T19:52:54;4.18;;;3.70;;
7941;SDS011;4016;50.758;7.150;2022-09-13T19:57:55;4.30;;;3.70;;
7941;SDS011;4016;50.758;7.150;2022-09-13T20:02:55;6.15;;;3.65;;
7941;SDS011;4016;50.758;7.150;2022-09-13T20:07:55;3.60;;;3.30;;
7941;SDS011;4016;50.758;7.150;2022-09-13T20:12:56;4.05;;;3.55;;
7941;SDS011;4016;50.758;7.150;2022-09-13T20:17:57;4.35;;;3.60;;
7941;SDS011;4016;50.758;7.150;2022-09-13T20:22:57;4.68;;;3.78;;
7941;SDS011;4016;50.758;7.150;2022-09-13T20:27:58;4.18;;;3.78;;
7941;SDS011;4016;50.758;7.150;2022-09-13T20:32:58;3.85;;;3.55;;
7941;SDS011;4016;50.758;7.150;2022-09-13T20:37:58;3.88;;;3.47;;
7941;SDS011;4016;50.758;7.150;2022-09-13T20:42:59;3.20;;;2.90;;
7941;SDS011;4016;50.758;7.150;2022-09-13T20:47:59;3.95;;;3.55;;
7941;SDS011;4016;50.758;7.150;2022-09-13T20:52:59;3.25;;;2.95;;
7941;SDS011;4016;50.758;7.150;2022-09-13T20:58:00;6.40;;;3.70;;
7941;SDS011;4016;50.758;7.150;2022-09-13T21:03:00;3.60;;;3.30;;
7941;SDS011;4016;50.758;7.150;2022-09-13T21:08:01;3.78;;;3.28;;
7941;SDS011;4016;50.758;7.150;2022-09-13T21:13:20;3.83;;;3.53;;
7941;SDS011;4016;50.758;7.150;2022-09-13T21:18:20;5.05;;;3.47;;
7941;SDS011;4016;50.758;7.150;2022-09-13T21:23:21;4.38;;;3.88;;
7941;SDS011;4016;50.758;7.150;2022-09-13T21:28:21;4.30;;;3.90;;
7941;SDS011;4016;50.758;7.150;2022-09-13T21:33:22;7.40;;;4.70;;
7941;SDS011;4016;50.758;7.150;2022-09-13T21:38:26;5.13;;;4.47;;
7941;SDS011;4016;50.758;7.150;2022-09-13T21:43:28;8.07;;;7.18;;
7941;SDS011;4016;50.758;7.150;2022-09-13T21:48:30;8.70;;;7.10;;
7941;SDS011;4016;50.758;7.150;2022-09-13T21:53:33;8.07;;;7.28;;
7941;SDS011;4016;50.758;7.150;2022-09-13T21:58:35;7.00;;;6.40;;
7941;SDS011;4016;50.758;7.150;2022-09-13T22:03:36;5.78;;;4.88;;
7941;SDS011;4016;50.758;7.150;2022-09-13T22:08:38;5.75;;;5.18;;
7941;SDS011;4016;50.758;7.150;2022-09-13T22:13:41;4.65;;;4.18;;
7941;SDS011;4016;50.758;7.150;2022-09-13T22:18:54;5.93;;;4.63;;
7941;SDS011;4016;50.758;7.150;2022-09-13T22:23:59;5.25;;;4.13;;
7941;SDS011;4016;50.758;7.150;2022-09-13T22:29:00;5.00;;;4.50;;
7941;SDS011;4016;50.758;7.150;2022-09-13T22:34:01;4.75;;;4.30;;
7941;SDS011;4016;50.758;7.150;2022-09-13T22:39:02;7.05;;;4.63;;
7941;SDS011;4016;50.758;7.150;2022-09-13T22:44:03;5.07;;;4.68;;
7941;SDS011;4016;50.758;7.150;2022-09-13T22:49:03;4.63;;;4.07;;
7941;SDS011;4016;50.758;7.150;2022-09-13T22:54:05;5.55;;;5.05;;
7941;SDS011;4016;50.758;7.150;2022-09-13T22:59:09;7.55;;;6.75;;
7941;SDS011;4016;50.758;7.150;2022-09-13T23:04:12;8.07;;;7.32;;
7941;SDS011;4016;50.758;7.150;2022-09-13T23:09:14;8.45;;;7.65;;
7941;SDS011;4016;50.758;7.150;2022-09-13T23:14:16;7.93;;;6.72;;
7941;SDS011;4016;50.758;7.150;2022-09-13T23:19:19;8.60;;;7.70;;
7941;SDS011;4016;50.758;7.150;2022-09-13T23:24:21;7.85;;;7.10;;
7941;SDS011;4016;50.758;7.150;2022-09-13T23:29:23;6.68;;;6.03;;
7941;SDS011;4016;50.758;7.150;2022-09-13T23:34:23;7.57;;;6.28;;
7941;SDS011;4016;50.758;7.150;2022-09-13T23:39:24;7.30;;;5.80;;
7941;SDS011;4016;50.758;7.150;2022-09-13T23:44:24;7.10;;;6.30;;
7941;SDS011;4016;50.758;7.150;2022-09-13T23:49:26;7.07;;;5.95;;
7941;SDS011;4016;50.758;7.150;2022-09-13T23:54:26;8.10;;;6.35;;
7941;SDS011;4016;50.758;7.150;2022-09-13T23:59:26;6.35;;;5.75;;
